sensor_id;sensor_type;location;lat;lon;timestamp;temperature;humidity
48604;DHT22;32708;51.212;6.788;2024-02-14T00:02:23;10.00;98.20
48604;DHT22;32708;51.212;6.788;2024-02-14T00:04:59;9.90;97.90
48604;DHT22;32708;51.212;6.788;2024-02-14T00:07:26;10.00;99.90
48604;DHT22;32708;51.212;6.788;2024-02-14T00:09:52;9.90;98.50
48604;DHT22;32708;51.212;6.788;2024-02-14T00:12:20;9.90;99.90
48604;DHT22;32708;51.212;6.788;2024-02-14T00:14:46;9.90;98.80
48604;DHT22;32708;51.212;6.788;2024-02-14T00:17:12;9.90;99.90
48604;DHT22;32708;51.212;6.788;2024-02-14T00:19:38;9.90;99.90
48604;DHT22;32708;51.212;6.788;2024-02-14T00:22:05;9.80;99.90
48604;DHT22;32708;51.212;6.788;2024-02-14T00:24:32;9.80;99.90
48604;DHT22;32708;51.212;6.788;2024-02-14T00:26:59;9.80;99.90
48604;DHT22;32708;51.212;6.788;2024-02-14T00:29:26;9.80;99.90
48604;DHT22;32708;51.212;6.788;2024-02-14T00:31:52;9.80;99.90
48604;DHT22;32708;51.212;6.788;2024-02-14T00:34:20;9.70;99.90
48604;DHT22;32708;51.212;6.788;2024-02-14T00:36:47;9.60;99.90
48604;DHT22;32708;51.212;6.788;2024-02-14T00:39:13;9.60;99.90
48604;DHT22;32708;51.212;6.788;2024-02-14T00:41:39;9.50;99.90
48604;DHT22;32708;51.212;6.788;2024-02-14T00:44:05;9.50;99.90
48604;DHT22;32708;51.212;6.788;2024-02-14T00:46:32;9.50;99.90
48604;DHT22;32708;51.212;6.788;2024-02-14T00:48:58;9.50;99.90
48604;DHT22;32708;51.212;6.788;2024-02-14T00:51:25;9.50;99.90
48604;DHT22;32708;51.212;6.788;2024-02-14T00:53:52;9.50;99.90
48604;DHT22;32708;51.212;6.788;2024-02-14T00:56:18;9.60;99.90
48604;DHT22;32708;51.212;6.788;2024-02-14T00:58:44;9.60;99.90
48604;DHT22;32708;51.212;6.788;2024-02-14T01:01:11;9.60;99.90
48604;DHT22;32708;51.212;6.788;2024-02-14T01:03:38;9.60;99.90
48604;DHT22;32708;51.212;6.788;2024-02-14T01:06:04;9.60;99.90
48604;DHT22;32708;51.212;6.788;2024-02-14T01:08:30;9.70;99.90
48604;DHT22;32708;51.212;6.788;2024-02-14T01:10:56;9.70;99.90
48604;DHT22;32708;51.212;6.788;2024-02-14T01:13:22;9.70;99.90
48604;DHT22;32708;51.212;6.788;2024-02-14T01:15:48;9.70;99.90
48604;DHT22;32708;51.212;6.788;2024-02-14T01:18:15;9.70;99.90
48604;DHT22;32708;51.212;6.788;2024-02-14T01:20:42;9.70;99.90
48604;DHT22;32708;51.212;6.788;2024-02-14T01:23:08;9.70;99.90
48604;DHT22;32708;51.212;6.788;2024-02-14T01:25:46;9.80;99.90
48604;DHT22;32708;51.212;6.788;2024-02-14T01:28:12;9.80;99.90
48604;DHT22;32708;51.212;6.788;2024-02-14T01:30:39;9.90;99.90
48604;DHT22;32708;51.212;6.788;2024-02-14T01:33:05;10.00;99.90
48604;DHT22;32708;51.212;6.788;2024-02-14T01:35:31;10.00;99.90
48604;DHT22;32708;51.212;6.788;2024-02-14T01:37:57;9.90;99.90
48604;DHT22;32708;51.212;6.788;2024-02-14T01:40:24;10.00;99.90
48604;DHT22;32708;51.212;6.788;2024-02-14T01:43:02;10.00;99.90
48604;DHT22;32708;51.212;6.788;2024-02-14T01:45:28;10.00;99.90
48604;DHT22;32708;51.212;6.788;2024-02-14T01:48:02;10.10;99.90
48604;DHT22;32708;51.212;6.788;2024-02-14T01:50:32;10.10;99.90
48604;DHT22;32708;51.212;6.788;2024-02-14T01:53:00;10.00;99.90
48604;DHT22;32708;51.212;6.788;2024-02-14T01:55:28;10.00;99.90
48604;DHT22;32708;51.212;6.788;2024-02-14T01:57:55;10.00;99.90
48604;DHT22;32708;51.212;6.788;2024-02-14T02:00:21;10.10;99.90
48604;DHT22;32708;51.212;6.788;2024-02-14T02:02:48;10.10;99.90
48604;DHT22;32708;51.212;6.788;2024-02-14T02:05:18;10.00;99.90
48604;DHT22;32708;51.212;6.788;2024-02-14T02:07:45;10.10;99.90
48604;DHT22;32708;51.212;6.788;2024-02-14T02:10:14;10.10;99.90
48604;DHT22;32708;51.212;6.788;2024-02-14T02:12:48;10.10;99.90
48604;DHT22;32708;51.212;6.788;2024-02-14T02:15:36;10.00;99.90
48604;DHT22;32708;51.212;6.788;2024-02-14T02:18:23;10.10;99.90
48604;DHT22;32708;51.212;6.788;2024-02-14T02:21:11;10.10;99.90
48604;DHT22;32708;51.212;6.788;2024-02-14T02:23:40;10.20;99.90
48604;DHT22;32708;51.212;6.788;2024-02-14T02:26:11;10.10;99.90
48604;DHT22;32708;51.212;6.788;2024-02-14T02:28:57;10.10;99.90
48604;DHT22;32708;51.212;6.788;2024-02-14T02:31:23;10.10;99.90
48604;DHT22;32708;51.212;6.788;2024-02-14T02:33:49;10.10;99.90
48604;DHT22;32708;51.212;6.788;2024-02-14T02:36:15;10.30;99.90
48604;DHT22;32708;51.212;6.788;2024-02-14T02:39:01;10.20;99.90
48604;DHT22;32708;51.212;6.788;2024-02-14T02:41:47;10.20;99.90
48604;DHT22;32708;51.212;6.788;2024-02-14T02:44:34;10.20;99.90
48604;DHT22;32708;51.212;6.788;2024-02-14T02:47:18;10.20;99.90
48604;DHT22;32708;51.212;6.788;2024-02-14T02:50:05;10.30;99.90
48604;DHT22;32708;51.212;6.788;2024-02-14T02:52:51;10.30;99.90
48604;DHT22;32708;51.212;6.788;2024-02-14T02:55:37;10.40;99.90
48604;DHT22;32708;51.212;6.788;2024-02-14T02:58:04;10.50;99.90
48604;DHT22;32708;51.212;6.788;2024-02-14T03:00:32;10.40;99.90
48604;DHT22;32708;51.212;6.788;2024-02-14T03:03:10;10.40;99.90
48604;DHT22;32708;51.212;6.788;2024-02-14T03:05:53;10.30;99.90
48604;DHT22;32708;51.212;6.788;2024-02-14T03:08:36;10.30;99.90
48604;DHT22;32708;51.212;6.788;2024-02-14T03:11:23;10.30;99.90
48604;DHT22;32708;51.212;6.788;2024-02-14T03:14:10;10.40;99.90
48604;DHT22;32708;51.212;6.788;2024-02-14T03:16:56;10.30;99.90
48604;DHT22;32708;51.212;6.788;2024-02-14T03:19:25;10.30;99.90
48604;DHT22;32708;51.212;6.788;2024-02-14T03:21:53;10.30;99.90
48604;DHT22;32708;51.212;6.788;2024-02-14T03:24:21;10.50;99.90
48604;DHT22;32708;51.212;6.788;2024-02-14T03:26:47;10.50;99.90
48604;DHT22;32708;51.212;6.788;2024-02-14T03:29:13;10.40;99.90
48604;DHT22;32708;51.212;6.788;2024-02-14T03:31:39;10.50;99.90
48604;DHT22;32708;51.212;6.788;2024-02-14T03:34:06;10.50;99.90
48604;DHT22;32708;51.212;6.788;2024-02-14T03:36:32;10.40;99.90
48604;DHT22;32708;51.212;6.788;2024-02-14T03:39:00;10.40;99.90
48604;DHT22;32708;51.212;6.788;2024-02-14T03:41:31;10.40;99.90
48604;DHT22;32708;51.212;6.788;2024-02-14T03:43:57;10.40;99.90
48604;DHT22;32708;51.212;6.788;2024-02-14T03:46:29;10.50;99.90
48604;DHT22;32708;51.212;6.788;2024-02-14T03:48:56;10.50;99.90
48604;DHT22;32708;51.212;6.788;2024-02-14T03:51:25;10.40;99.90
48604;DHT22;32708;51.212;6.788;2024-02-14T03:53:51;10.30;99.90
48604;DHT22;32708;51.212;6.788;2024-02-14T03:56:18;10.40;99.90
48604;DHT22;32708;51.212;6.788;2024-02-14T03:58:44;10.80;99.90
48604;DHT22;32708;51.212;6.788;2024-02-14T04:01:10;10.40;99.90
48604;DHT22;32708;51.212;6.788;2024-02-14T04:03:36;10.30;99.90
48604;DHT22;32708;51.212;6.788;2024-02-14T04:06:02;10.30;99.90
48604;DHT22;32708;51.212;6.788;2024-02-14T04:08:28;10.40;99.90
48604;DHT22;32708;51.212;6.788;2024-02-14T04:10:55;10.50;99.90
48604;DHT22;32708;51.212;6.788;2024-02-14T04:13:22;10.50;99.90
48604;DHT22;32708;51.212;6.788;2024-02-14T04:15:48;10.40;99.90
48604;DHT22;32708;51.212;6.788;2024-02-14T04:18:18;10.50;99.90
48604;DHT22;32708;51.212;6.788;2024-02-14T04:20:44;10.50;99.90
48604;DHT22;32708;51.212;6.788;2024-02-14T04:23:11;10.50;99.90
48604;DHT22;32708;51.212;6.788;2024-02-14T04:25:37;10.50;99.90
48604;DHT22;32708;51.212;6.788;2024-02-14T04:28:03;10.50;99.90
48604;DHT22;32708;51.212;6.788;2024-02-14T04:30:30;10.60;99.90
48604;DHT22;32708;51.212;6.788;2024-02-14T04:33:02;10.70;99.90
48604;DHT22;32708;51.212;6.788;2024-02-14T04:35:30;10.60;99.90
48604;DHT22;32708;51.212;6.788;2024-02-14T04:37:56;10.60;99.90
48604;DHT22;32708;51.212;6.788;2024-02-14T04:40:23;10.60;99.90
48604;DHT22;32708;51.212;6.788;2024-02-14T04:42:49;10.60;99.90
48604;DHT22;32708;51.212;6.788;2024-02-14T04:45:15;10.50;99.90
48604;DHT22;32708;51.212;6.788;2024-02-14T04:47:52;10.50;99.90
48604;DHT22;32708;51.212;6.788;2024-02-14T04:50:18;10.50;99.90
48604;DHT22;32708;51.212;6.788;2024-02-14T04:52:45;10.50;99.90
48604;DHT22;32708;51.212;6.788;2024-02-14T04:55:11;10.50;99.90
48604;DHT22;32708;51.212;6.788;2024-02-14T04:57:37;10.50;99.90
48604;DHT22;32708;51.212;6.788;2024-02-14T05:00:05;10.60;99.90
48604;DHT22;32708;51.212;6.788;2024-02-14T05:02:34;10.50;99.90
48604;DHT22;32708;51.212;6.788;2024-02-14T05:05:00;10.60;99.90
48604;DHT22;32708;51.212;6.788;2024-02-14T05:07:27;10.60;99.90
48604;DHT22;32708;51.212;6.788;2024-02-14T05:09:53;10.70;99.90
48604;DHT22;32708;51.212;6.788;2024-02-14T05:12:22;10.70;99.90
48604;DHT22;32708;51.212;6.788;2024-02-14T05:14:48;10.70;99.90
48604;DHT22;32708;51.212;6.788;2024-02-14T05:17:17;10.70;99.90
48604;DHT22;32708;51.212;6.788;2024-02-14T05:19:43;10.60;99.90
48604;DHT22;32708;51.212;6.788;2024-02-14T05:22:09;10.50;99.90
48604;DHT22;32708;51.212;6.788;2024-02-14T05:24:36;10.70;99.90
48604;DHT22;32708;51.212;6.788;2024-02-14T05:27:04;10.60;99.90
48604;DHT22;32708;51.212;6.788;2024-02-14T05:29:31;10.60;99.90
48604;DHT22;32708;51.212;6.788;2024-02-14T05:31:57;10.60;99.90
48604;DHT22;32708;51.212;6.788;2024-02-14T05:34:23;10.50;99.90
48604;DHT22;32708;51.212;6.788;2024-02-14T05:36:49;11.00;99.90
48604;DHT22;32708;51.212;6.788;2024-02-14T05:39:16;10.50;99.90
48604;DHT22;32708;51.212;6.788;2024-02-14T05:41:43;10.60;99.90
48604;DHT22;32708;51.212;6.788;2024-02-14T05:44:09;10.50;99.90
48604;DHT22;32708;51.212;6.788;2024-02-14T05:46:35;10.50;99.90
48604;DHT22;32708;51.212;6.788;2024-02-14T05:49:01;10.70;99.90
48604;DHT22;32708;51.212;6.788;2024-02-14T05:51:28;10.50;99.90
48604;DHT22;32708;51.212;6.788;2024-02-14T05:53:54;10.50;99.90
48604;DHT22;32708;51.212;6.788;2024-02-14T05:56:20;10.40;99.90
48604;DHT22;32708;51.212;6.788;2024-02-14T05:58:46;10.90;99.90
48604;DHT22;32708;51.212;6.788;2024-02-14T06:01:13;10.40;99.90
48604;DHT22;32708;51.212;6.788;2024-02-14T06:03:41;10.70;99.90
48604;DHT22;32708;51.212;6.788;2024-02-14T06:06:08;10.30;99.90
48604;DHT22;32708;51.212;6.788;2024-02-14T06:08:34;10.80;99.90
48604;DHT22;32708;51.212;6.788;2024-02-14T06:11:01;10.50;99.90
48604;DHT22;32708;51.212;6.788;2024-02-14T06:13:27;10.60;99.90
48604;DHT22;32708;51.212;6.788;2024-02-14T06:15:53;10.50;99.90
48604;DHT22;32708;51.212;6.788;2024-02-14T06:18:19;10.50;99.90
48604;DHT22;32708;51.212;6.788;2024-02-14T06:20:45;10.40;99.90
48604;DHT22;32708;51.212;6.788;2024-02-14T06:23:12;10.50;99.90
48604;DHT22;32708;51.212;6.788;2024-02-14T06:25:38;10.50;99.90
48604;DHT22;32708;51.212;6.788;2024-02-14T06:28:09;10.60;99.90
48604;DHT22;32708;51.212;6.788;2024-02-14T06:30:35;10.60;99.90
48604;DHT22;32708;51.212;6.788;2024-02-14T06:33:01;10.70;99.90
48604;DHT22;32708;51.212;6.788;2024-02-14T06:35:28;10.70;99.90
48604;DHT22;32708;51.212;6.788;2024-02-14T06:37:55;10.70;99.90
48604;DHT22;32708;51.212;6.788;2024-02-14T06:40:22;10.70;99.90
48604;DHT22;32708;51.212;6.788;2024-02-14T06:42:48;10.70;99.90
48604;DHT22;32708;51.212;6.788;2024-02-14T06:45:17;10.70;99.90
48604;DHT22;32708;51.212;6.788;2024-02-14T06:47:55;10.70;99.90
48604;DHT22;32708;51.212;6.788;2024-02-14T06:50:21;10.70;99.90
48604;DHT22;32708;51.212;6.788;2024-02-14T06:52:47;10.70;99.90
48604;DHT22;32708;51.212;6.788;2024-02-14T06:55:13;10.60;99.90
48604;DHT22;32708;51.212;6.788;2024-02-14T06:57:39;10.60;99.90
48604;DHT22;32708;51.212;6.788;2024-02-14T07:00:06;11.10;99.90
48604;DHT22;32708;51.212;6.788;2024-02-14T07:02:37;10.80;99.90
48604;DHT22;32708;51.212;6.788;2024-02-14T07:05:04;10.80;99.90
48604;DHT22;32708;51.212;6.788;2024-02-14T07:07:32;10.70;99.90
48604;DHT22;32708;51.212;6.788;2024-02-14T07:09:58;10.80;99.90
48604;DHT22;32708;51.212;6.788;2024-02-14T07:12:25;10.70;99.90
48604;DHT22;32708;51.212;6.788;2024-02-14T07:14:51;10.80;99.90
48604;DHT22;32708;51.212;6.788;2024-02-14T07:17:17;10.80;99.90
48604;DHT22;32708;51.212;6.788;2024-02-14T07:19:43;10.80;99.90
48604;DHT22;32708;51.212;6.788;2024-02-14T07:22:13;10.80;99.90
48604;DHT22;32708;51.212;6.788;2024-02-14T07:24:41;10.90;99.90
48604;DHT22;32708;51.212;6.788;2024-02-14T07:27:13;11.00;99.90
48604;DHT22;32708;51.212;6.788;2024-02-14T07:29:40;11.00;99.90
48604;DHT22;32708;51.212;6.788;2024-02-14T07:32:07;10.90;99.90
48604;DHT22;32708;51.212;6.788;2024-02-14T07:34:33;10.90;99.90
48604;DHT22;32708;51.212;6.788;2024-02-14T07:36:59;11.00;99.90
48604;DHT22;32708;51.212;6.788;2024-02-14T07:39:26;11.00;99.90
48604;DHT22;32708;51.212;6.788;2024-02-14T07:41:52;11.00;99.90
48604;DHT22;32708;51.212;6.788;2024-02-14T07:44:18;11.00;99.90
48604;DHT22;32708;51.212;6.788;2024-02-14T07:46:44;11.00;99.90
48604;DHT22;32708;51.212;6.788;2024-02-14T07:49:10;11.00;99.90
48604;DHT22;32708;51.212;6.788;2024-02-14T07:51:36;11.00;99.90
48604;DHT22;32708;51.212;6.788;2024-02-14T07:54:04;11.10;99.90
48604;DHT22;32708;51.212;6.788;2024-02-14T07:56:31;11.10;99.90
48604;DHT22;32708;51.212;6.788;2024-02-14T07:58:58;11.20;99.90
48604;DHT22;32708;51.212;6.788;2024-02-14T08:01:25;11.10;99.90
48604;DHT22;32708;51.212;6.788;2024-02-14T08:03:51;11.20;99.90
48604;DHT22;32708;51.212;6.788;2024-02-14T08:06:17;11.40;99.90
48604;DHT22;32708;51.212;6.788;2024-02-14T08:08:43;11.30;99.90
48604;DHT22;32708;51.212;6.788;2024-02-14T08:11:14;11.30;99.90
48604;DHT22;32708;51.212;6.788;2024-02-14T08:13:40;11.30;99.90
48604;DHT22;32708;51.212;6.788;2024-02-14T08:16:07;11.40;99.90
48604;DHT22;32708;51.212;6.788;2024-02-14T08:18:33;11.50;99.90
48604;DHT22;32708;51.212;6.788;2024-02-14T08:20:59;11.40;99.90
48604;DHT22;32708;51.212;6.788;2024-02-14T08:23:26;11.50;99.90
48604;DHT22;32708;51.212;6.788;2024-02-14T08:25:52;11.50;99.90
48604;DHT22;32708;51.212;6.788;2024-02-14T08:28:18;11.50;99.90
48604;DHT22;32708;51.212;6.788;2024-02-14T08:30:46;11.40;99.90
48604;DHT22;32708;51.212;6.788;2024-02-14T08:33:13;11.60;99.90
48604;DHT22;32708;51.212;6.788;2024-02-14T08:35:39;11.40;99.90
48604;DHT22;32708;51.212;6.788;2024-02-14T08:38:05;11.50;99.90
48604;DHT22;32708;51.212;6.788;2024-02-14T08:40:32;11.70;99.90
48604;DHT22;32708;51.212;6.788;2024-02-14T08:42:58;11.70;99.90
48604;DHT22;32708;51.212;6.788;2024-02-14T08:45:25;11.70;99.90
48604;DHT22;32708;51.212;6.788;2024-02-14T08:47:51;11.70;99.90
48604;DHT22;32708;51.212;6.788;2024-02-14T08:50:17;11.80;99.90
48604;DHT22;32708;51.212;6.788;2024-02-14T08:52:43;11.80;99.90
48604;DHT22;32708;51.212;6.788;2024-02-14T08:55:09;11.70;99.90
48604;DHT22;32708;51.212;6.788;2024-02-14T08:57:42;11.90;99.90
48604;DHT22;32708;51.212;6.788;2024-02-14T09:00:09;11.80;99.90
48604;DHT22;32708;51.212;6.788;2024-02-14T09:02:36;11.70;99.90
48604;DHT22;32708;51.212;6.788;2024-02-14T09:05:03;11.90;99.90
48604;DHT22;32708;51.212;6.788;2024-02-14T09:07:31;11.80;99.90
48604;DHT22;32708;51.212;6.788;2024-02-14T09:09:59;11.80;99.90
48604;DHT22;32708;51.212;6.788;2024-02-14T09:12:27;11.90;99.90
48604;DHT22;32708;51.212;6.788;2024-02-14T09:14:53;11.90;99.90
48604;DHT22;32708;51.212;6.788;2024-02-14T09:17:19;11.90;99.90
48604;DHT22;32708;51.212;6.788;2024-02-14T09:19:45;12.00;99.90
48604;DHT22;32708;51.212;6.788;2024-02-14T09:22:11;12.20;99.90
48604;DHT22;32708;51.212;6.788;2024-02-14T09:24:44;12.30;99.90
48604;DHT22;32708;51.212;6.788;2024-02-14T09:27:10;12.50;99.90
48604;DHT22;32708;51.212;6.788;2024-02-14T09:29:36;12.60;99.90
48604;DHT22;32708;51.212;6.788;2024-02-14T09:32:04;12.70;99.90
48604;DHT22;32708;51.212;6.788;2024-02-14T09:34:30;12.80;99.90
48604;DHT22;32708;51.212;6.788;2024-02-14T09:36:57;12.60;99.90
48604;DHT22;32708;51.212;6.788;2024-02-14T09:39:24;12.50;99.90
48604;DHT22;32708;51.212;6.788;2024-02-14T09:41:59;12.60;99.90
48604;DHT22;32708;51.212;6.788;2024-02-14T09:44:28;12.50;99.90
48604;DHT22;32708;51.212;6.788;2024-02-14T09:46:55;12.70;99.90
48604;DHT22;32708;51.212;6.788;2024-02-14T09:49:24;12.80;99.90
48604;DHT22;32708;51.212;6.788;2024-02-14T09:51:52;12.70;99.90
48604;DHT22;32708;51.212;6.788;2024-02-14T09:54:19;12.70;99.90
48604;DHT22;32708;51.212;6.788;2024-02-14T09:56:50;12.70;99.90
48604;DHT22;32708;51.212;6.788;2024-02-14T09:59:22;12.70;99.90
48604;DHT22;32708;51.212;6.788;2024-02-14T10:01:49;12.70;99.90
48604;DHT22;32708;51.212;6.788;2024-02-14T10:04:18;12.80;99.90
48604;DHT22;32708;51.212;6.788;2024-02-14T10:06:45;12.70;99.90
48604;DHT22;32708;51.212;6.788;2024-02-14T10:09:11;12.80;99.90
48604;DHT22;32708;51.212;6.788;2024-02-14T10:11:38;12.90;99.90
48604;DHT22;32708;51.212;6.788;2024-02-14T10:14:07;12.60;99.90
48604;DHT22;32708;51.212;6.788;2024-02-14T10:16:36;12.70;99.90
48604;DHT22;32708;51.212;6.788;2024-02-14T10:19:02;12.80;99.90
48604;DHT22;32708;51.212;6.788;2024-02-14T10:21:30;12.80;99.90
48604;DHT22;32708;51.212;6.788;2024-02-14T10:24:02;12.90;99.90
48604;DHT22;32708;51.212;6.788;2024-02-14T10:26:29;12.90;99.90
48604;DHT22;32708;51.212;6.788;2024-02-14T10:28:56;13.00;99.90
48604;DHT22;32708;51.212;6.788;2024-02-14T10:31:26;13.10;99.90
48604;DHT22;32708;51.212;6.788;2024-02-14T10:33:55;13.20;99.90
48604;DHT22;32708;51.212;6.788;2024-02-14T10:36:24;13.10;99.90
48604;DHT22;32708;51.212;6.788;2024-02-14T10:38:51;13.20;99.90
48604;DHT22;32708;51.212;6.788;2024-02-14T10:41:18;13.10;99.90
48604;DHT22;32708;51.212;6.788;2024-02-14T10:43:44;13.00;99.90
48604;DHT22;32708;51.212;6.788;2024-02-14T10:46:22;12.80;99.90
48604;DHT22;32708;51.212;6.788;2024-02-14T10:49:09;12.80;99.90
48604;DHT22;32708;51.212;6.788;2024-02-14T10:51:38;12.80;99.90
48604;DHT22;32708;51.212;6.788;2024-02-14T10:54:11;12.90;99.90
48604;DHT22;32708;51.212;6.788;2024-02-14T10:56:42;12.90;99.90
48604;DHT22;32708;51.212;6.788;2024-02-14T10:59:16;12.90;99.90
48604;DHT22;32708;51.212;6.788;2024-02-14T11:01:46;12.80;99.90
48604;DHT22;32708;51.212;6.788;2024-02-14T11:04:15;12.90;99.90
48604;DHT22;32708;51.212;6.788;2024-02-14T11:06:51;12.80;99.90
48604;DHT22;32708;51.212;6.788;2024-02-14T11:09:19;12.80;99.90
48604;DHT22;32708;51.212;6.788;2024-02-14T11:11:46;12.70;99.90
48604;DHT22;32708;51.212;6.788;2024-02-14T11:14:17;12.60;99.90
48604;DHT22;32708;51.212;6.788;2024-02-14T11:16:45;12.60;99.90
48604;DHT22;32708;51.212;6.788;2024-02-14T11:19:13;12.70;99.90
48604;DHT22;32708;51.212;6.788;2024-02-14T11:21:42;12.70;99.90
48604;DHT22;32708;51.212;6.788;2024-02-14T11:24:13;12.80;99.90
48604;DHT22;32708;51.212;6.788;2024-02-14T11:26:51;12.90;99.90
48604;DHT22;32708;51.212;6.788;2024-02-14T11:29:19;12.90;99.90
48604;DHT22;32708;51.212;6.788;2024-02-14T11:31:46;13.00;99.90
48604;DHT22;32708;51.212;6.788;2024-02-14T11:34:17;13.10;99.90
48604;DHT22;32708;51.212;6.788;2024-02-14T11:36:45;13.40;99.90
48604;DHT22;32708;51.212;6.788;2024-02-14T11:39:11;13.30;99.90
48604;DHT22;32708;51.212;6.788;2024-02-14T11:41:38;13.30;99.90
48604;DHT22;32708;51.212;6.788;2024-02-14T11:44:05;13.30;99.90
48604;DHT22;32708;51.212;6.788;2024-02-14T11:46:35;13.40;99.90
48604;DHT22;32708;51.212;6.788;2024-02-14T11:49:04;13.50;99.90
48604;DHT22;32708;51.212;6.788;2024-02-14T11:51:33;13.60;99.90
48604;DHT22;32708;51.212;6.788;2024-02-14T11:54:05;13.70;99.90
48604;DHT22;32708;51.212;6.788;2024-02-14T11:56:34;13.60;99.90
48604;DHT22;32708;51.212;6.788;2024-02-14T11:59:03;13.50;99.90
48604;DHT22;32708;51.212;6.788;2024-02-14T12:01:31;13.50;99.90
48604;DHT22;32708;51.212;6.788;2024-02-14T12:04:05;13.30;99.90
48604;DHT22;32708;51.212;6.788;2024-02-14T12:06:35;13.30;99.90
48604;DHT22;32708;51.212;6.788;2024-02-14T12:09:03;13.40;99.90
48604;DHT22;32708;51.212;6.788;2024-02-14T12:11:33;13.40;99.90
48604;DHT22;32708;51.212;6.788;2024-02-14T12:14:03;13.30;99.90
48604;DHT22;32708;51.212;6.788;2024-02-14T12:16:31;13.20;99.90
48604;DHT22;32708;51.212;6.788;2024-02-14T12:19:15;13.30;99.90
48604;DHT22;32708;51.212;6.788;2024-02-14T12:21:42;13.40;99.90
48604;DHT22;32708;51.212;6.788;2024-02-14T12:24:13;12.90;99.90
48604;DHT22;32708;51.212;6.788;2024-02-14T12:26:41;12.80;99.90
48604;DHT22;32708;51.212;6.788;2024-02-14T12:29:12;12.60;99.90
48604;DHT22;32708;51.212;6.788;2024-02-14T12:31:41;12.50;99.90
48604;DHT22;32708;51.212;6.788;2024-02-14T12:34:11;12.60;99.90
48604;DHT22;32708;51.212;6.788;2024-02-14T12:36:40;12.60;99.90
48604;DHT22;32708;51.212;6.788;2024-02-14T12:39:06;12.70;99.90
48604;DHT22;32708;51.212;6.788;2024-02-14T12:41:35;12.70;99.90
48604;DHT22;32708;51.212;6.788;2024-02-14T12:44:05;12.50;99.90
48604;DHT22;32708;51.212;6.788;2024-02-14T12:46:32;12.60;99.90
48604;DHT22;32708;51.212;6.788;2024-02-14T12:48:58;12.60;99.90
48604;DHT22;32708;51.212;6.788;2024-02-14T12:51:24;12.70;99.90
48604;DHT22;32708;51.212;6.788;2024-02-14T12:53:54;12.70;99.90
48604;DHT22;32708;51.212;6.788;2024-02-14T12:56:20;12.80;99.90
48604;DHT22;32708;51.212;6.788;2024-02-14T12:58:47;12.90;99.90
48604;DHT22;32708;51.212;6.788;2024-02-14T13:01:15;12.80;99.90
48604;DHT22;32708;51.212;6.788;2024-02-14T13:03:43;12.80;99.90
48604;DHT22;32708;51.212;6.788;2024-02-14T13:06:11;12.90;99.90
48604;DHT22;32708;51.212;6.788;2024-02-14T13:08:37;12.90;99.90
48604;DHT22;32708;51.212;6.788;2024-02-14T13:11:04;13.00;99.90
48604;DHT22;32708;51.212;6.788;2024-02-14T13:13:31;13.00;99.90
48604;DHT22;32708;51.212;6.788;2024-02-14T13:15:57;13.10;99.90
48604;DHT22;32708;51.212;6.788;2024-02-14T13:18:24;13.20;99.90
48604;DHT22;32708;51.212;6.788;2024-02-14T13:20:50;13.30;99.90
48604;DHT22;32708;51.212;6.788;2024-02-14T13:23:23;13.50;99.90
48604;DHT22;32708;51.212;6.788;2024-02-14T13:25:51;13.40;99.90
48604;DHT22;32708;51.212;6.788;2024-02-14T13:28:17;13.50;99.90
48604;DHT22;32708;51.212;6.788;2024-02-14T13:30:44;13.50;99.90
48604;DHT22;32708;51.212;6.788;2024-02-14T13:33:13;13.60;99.90
48604;DHT22;32708;51.212;6.788;2024-02-14T13:35:40;13.40;99.90
48604;DHT22;32708;51.212;6.788;2024-02-14T13:38:08;13.50;99.90
48604;DHT22;32708;51.212;6.788;2024-02-14T13:40:35;13.40;99.90
48604;DHT22;32708;51.212;6.788;2024-02-14T13:43:01;13.40;99.90
48604;DHT22;32708;51.212;6.788;2024-02-14T13:45:43;13.40;99.90
48604;DHT22;32708;51.212;6.788;2024-02-14T13:48:11;13.50;99.90
48604;DHT22;32708;51.212;6.788;2024-02-14T13:50:38;13.30;99.90
48604;DHT22;32708;51.212;6.788;2024-02-14T13:53:06;13.30;99.90
48604;DHT22;32708;51.212;6.788;2024-02-14T13:55:32;13.30;99.90
48604;DHT22;32708;51.212;6.788;2024-02-14T13:57:59;13.40;99.90
48604;DHT22;32708;51.212;6.788;2024-02-14T14:00:25;13.20;99.90
48604;DHT22;32708;51.212;6.788;2024-02-14T14:02:52;13.30;99.90
48604;DHT22;32708;51.212;6.788;2024-02-14T14:05:19;13.40;99.90
48604;DHT22;32708;51.212;6.788;2024-02-14T14:07:47;13.40;99.90
48604;DHT22;32708;51.212;6.788;2024-02-14T14:10:14;13.30;99.90
48604;DHT22;32708;51.212;6.788;2024-02-14T14:12:41;13.20;99.90
48604;DHT22;32708;51.212;6.788;2024-02-14T14:15:07;13.20;99.90
48604;DHT22;32708;51.212;6.788;2024-02-14T14:17:35;13.20;99.90
48604;DHT22;32708;51.212;6.788;2024-02-14T14:20:02;13.20;99.90
48604;DHT22;32708;51.212;6.788;2024-02-14T14:22:29;13.10;99.90
48604;DHT22;32708;51.212;6.788;2024-02-14T14:24:58;13.10;99.90
48604;DHT22;32708;51.212;6.788;2024-02-14T14:27:25;13.10;99.90
48604;DHT22;32708;51.212;6.788;2024-02-14T14:29:51;13.10;99.90
48604;DHT22;32708;51.212;6.788;2024-02-14T14:32:17;13.00;99.90
48604;DHT22;32708;51.212;6.788;2024-02-14T14:34:44;12.90;99.90
48604;DHT22;32708;51.212;6.788;2024-02-14T14:37:10;12.90;99.90
48604;DHT22;32708;51.212;6.788;2024-02-14T14:39:36;12.80;99.90
48604;DHT22;32708;51.212;6.788;2024-02-14T14:42:03;12.70;99.90
48604;DHT22;32708;51.212;6.788;2024-02-14T14:44:29;12.60;99.90
48604;DHT22;32708;51.212;6.788;2024-02-14T14:46:56;12.50;99.90
48604;DHT22;32708;51.212;6.788;2024-02-14T14:49:22;12.40;99.90
48604;DHT22;32708;51.212;6.788;2024-02-14T14:51:49;12.30;99.90
48604;DHT22;32708;51.212;6.788;2024-02-14T14:54:15;12.40;99.90
48604;DHT22;32708;51.212;6.788;2024-02-14T14:56:41;12.40;99.90
48604;DHT22;32708;51.212;6.788;2024-02-14T14:59:07;12.30;99.90
48604;DHT22;32708;51.212;6.788;2024-02-14T15:01:34;12.20;99.90
48604;DHT22;32708;51.212;6.788;2024-02-14T15:04:01;12.20;99.90
48604;DHT22;32708;51.212;6.788;2024-02-14T15:06:27;12.20;99.90
48604;DHT22;32708;51.212;6.788;2024-02-14T15:08:54;12.20;99.90
48604;DHT22;32708;51.212;6.788;2024-02-14T15:11:20;12.20;99.90
48604;DHT22;32708;51.212;6.788;2024-02-14T15:13:49;12.20;99.90
48604;DHT22;32708;51.212;6.788;2024-02-14T15:16:16;12.20;99.90
48604;DHT22;32708;51.212;6.788;2024-02-14T15:18:42;12.60;99.90
48604;DHT22;32708;51.212;6.788;2024-02-14T15:21:10;12.30;99.90
48604;DHT22;32708;51.212;6.788;2024-02-14T15:23:37;12.30;99.90
48604;DHT22;32708;51.212;6.788;2024-02-14T15:26:04;12.30;99.90
48604;DHT22;32708;51.212;6.788;2024-02-14T15:28:32;12.30;99.90
48604;DHT22;32708;51.212;6.788;2024-02-14T15:31:08;12.30;99.90
48604;DHT22;32708;51.212;6.788;2024-02-14T15:33:54;12.30;99.90
48604;DHT22;32708;51.212;6.788;2024-02-14T15:36:22;12.40;99.90
48604;DHT22;32708;51.212;6.788;2024-02-14T15:38:48;12.50;99.90
48604;DHT22;32708;51.212;6.788;2024-02-14T15:41:14;12.50;99.90